createdAt,value
2023-01-29T00:00:49.116Z,6.07
2023-01-29T00:03:52.516Z,6.38
2023-01-29T00:06:54.374Z,6.25
2023-01-29T00:09:56.078Z,5.90
2023-01-29T00:12:57.985Z,6.03
2023-01-29T00:16:00.143Z,6.55
2023-01-29T00:19:03.025Z,6.43
2023-01-29T00:22:04.812Z,6.40
2023-01-29T00:25:07.205Z,6.70
2023-01-29T00:28:09.542Z,6.28
2023-01-29T00:31:21.134Z,6.93
2023-01-29T00:34:23.604Z,6.95
2023-01-29T00:37:25.848Z,6.30
2023-01-29T00:40:27.667Z,6.75
2023-01-29T00:43:49.111Z,6.80
2023-01-29T00:46:51.414Z,6.65
2023-01-29T00:49:53.970Z,6.47
2023-01-29T00:52:55.928Z,6.50
2023-01-29T00:55:57.694Z,6.70
2023-01-29T00:58:59.720Z,6.47
2023-01-29T01:02:20.943Z,5.77
2023-01-29T01:05:24.517Z,6.32
2023-01-29T01:08:44.891Z,6.72
2023-01-29T01:11:47.253Z,6.22
2023-01-29T01:14:49.665Z,6.38
2023-01-29T01:18:02.516Z,6.28
2023-01-29T01:21:05.134Z,6.55
2023-01-29T01:24:07.460Z,6.80
2023-01-29T01:27:09.646Z,6.65
2023-01-29T01:30:16.962Z,6.85
2023-01-29T01:33:19.027Z,6.47
2023-01-29T01:36:21.280Z,6.68
2023-01-29T01:39:24.171Z,6.80
2023-01-29T01:42:30.622Z,6.10
2023-01-29T01:45:36.206Z,6.28
2023-01-29T01:48:38.765Z,6.07
2023-01-29T01:51:45.467Z,6.30
2023-01-29T01:54:48.952Z,6.70
2023-01-29T01:57:55.118Z,7.05
2023-01-29T02:00:57.341Z,6.47
2023-01-29T02:04:26.610Z,6.83
2023-01-29T02:07:47.310Z,6.72
2023-01-29T02:10:50.306Z,6.57
2023-01-29T02:13:53.795Z,7.22
2023-01-29T02:17:01.701Z,6.70
2023-01-29T02:20:12.472Z,6.78
2023-01-29T02:23:14.179Z,6.40
2023-01-29T02:26:23.261Z,6.93
2023-01-29T02:29:34.715Z,7.00
2023-01-29T02:32:54.540Z,7.03
2023-01-29T02:36:25.691Z,6.70
2023-01-29T02:39:48.787Z,6.75
2023-01-29T02:43:17.059Z,6.60
2023-01-29T02:46:39.403Z,6.70
2023-01-29T02:49:47.709Z,6.93
2023-01-29T02:52:50.804Z,6.60
2023-01-29T02:56:10.261Z,6.70
2023-01-29T02:59:20.251Z,6.90
2023-01-29T03:02:31.975Z,6.38
2023-01-29T03:06:06.386Z,6.97
2023-01-29T03:09:16.930Z,6.37
2023-01-29T03:12:36.376Z,7.40
2023-01-29T03:15:47.014Z,6.68
2023-01-29T03:19:06.748Z,6.68
2023-01-29T03:22:11.555Z,6.95
2023-01-29T03:25:33.909Z,6.82
2023-01-29T03:28:55.243Z,7.18
2023-01-29T03:32:07.784Z,6.43
2023-01-29T03:35:21.641Z,7.10
2023-01-29T03:38:29.742Z,7.05
2023-01-29T03:41:40.527Z,7.27
2023-01-29T03:44:49.229Z,7.18
2023-01-29T03:48:11.035Z,7.60
2023-01-29T03:51:26.955Z,7.13
2023-01-29T03:54:38.409Z,7.25
2023-01-29T03:57:53.616Z,7.70
2023-01-29T04:01:03.455Z,7.57
2023-01-29T04:04:10.413Z,7.40
2023-01-29T04:07:24.571Z,8.07
2023-01-29T04:10:38.826Z,7.65
2023-01-29T04:13:42.127Z,8.00
2023-01-29T04:16:53.951Z,7.55
2023-01-29T04:20:17.446Z,7.55
2023-01-29T04:23:26.190Z,7.70
2023-01-29T04:26:52.453Z,7.63
2023-01-29T04:30:06.101Z,7.35
2023-01-29T04:33:19.594Z,7.10
2023-01-29T04:36:48.973Z,6.90
2023-01-29T04:40:04.373Z,7.50
2023-01-29T04:43:15.917Z,7.13
2023-01-29T04:46:25.352Z,7.00
2023-01-29T04:49:40.682Z,7.30
2023-01-29T04:52:54.391Z,7.30
2023-01-29T04:56:01.030Z,7.70
2023-01-29T04:59:08.058Z,7.43
2023-01-29T05:02:12.087Z,7.85
2023-01-29T05:05:18.133Z,7.80
2023-01-29T05:08:23.699Z,7.70
2023-01-29T05:11:26.566Z,7.88
2023-01-29T05:14:31.293Z,7.95
2023-01-29T05:17:33.483Z,8.33
2023-01-29T05:20:39.320Z,8.77
2023-01-29T05:23:53.591Z,8.00
2023-01-29T05:27:13.984Z,8.23
2023-01-29T05:30:16.290Z,8.88
2023-01-29T05:33:22.403Z,8.25
2023-01-29T05:36:26.948Z,8.80
2023-01-29T05:39:29.583Z,8.07
2023-01-29T05:42:32.767Z,7.88
2023-01-29T05:45:34.567Z,8.50
2023-01-29T05:48:36.254Z,9.03
2023-01-29T05:51:39.227Z,8.15
2023-01-29T05:54:41.488Z,8.57
2023-01-29T05:57:43.582Z,8.07
2023-01-29T06:00:45.733Z,7.57
2023-01-29T06:03:48.297Z,8.60
2023-01-29T06:06:50.588Z,8.30
2023-01-29T06:09:52.357Z,8.37
2023-01-29T06:12:54.031Z,7.88
2023-01-29T06:15:55.748Z,8.23
2023-01-29T06:18:57.535Z,8.83
2023-01-29T06:21:59.907Z,8.13
2023-01-29T06:25:02.203Z,8.32
2023-01-29T06:28:04.154Z,8.57
2023-01-29T06:31:24.036Z,8.27
2023-01-29T06:34:29.992Z,8.40
2023-01-29T06:37:32.244Z,8.52
2023-01-29T06:40:33.924Z,9.07
2023-01-29T06:43:35.700Z,8.80
2023-01-29T06:46:37.661Z,9.07
2023-01-29T06:49:39.525Z,8.60
2023-01-29T06:52:42.715Z,8.80
2023-01-29T06:55:51.636Z,9.20
2023-01-29T06:58:53.410Z,8.73
2023-01-29T07:01:55.220Z,8.35
2023-01-29T07:04:56.927Z,8.48
2023-01-29T07:07:58.793Z,8.75
2023-01-29T07:11:01.717Z,8.40
2023-01-29T07:14:04.260Z,9.32
2023-01-29T07:17:06.032Z,9.68
2023-01-29T07:20:10.336Z,8.57
2023-01-29T07:23:14.065Z,8.75
2023-01-29T07:26:16.154Z,9.00
2023-01-29T07:29:18.356Z,9.13
2023-01-29T07:32:20.040Z,8.65
2023-01-29T07:35:22.752Z,9.25
2023-01-29T07:38:24.488Z,9.13
2023-01-29T07:41:26.792Z,8.80
2023-01-29T07:44:28.745Z,9.93
2023-01-29T07:47:30.497Z,10.40
2023-01-29T07:50:34.928Z,8.93
2023-01-29T07:53:37.106Z,9.20
2023-01-29T07:56:39.980Z,9.98
2023-01-29T07:59:43.184Z,9.55
2023-01-29T08:02:44.860Z,8.65
2023-01-29T08:05:47.132Z,9.75
2023-01-29T08:08:49.812Z,9.30
2023-01-29T08:11:52.705Z,8.83
2023-01-29T08:14:54.472Z,8.65
2023-01-29T08:17:57.980Z,8.57
2023-01-29T08:21:01.912Z,8.47
2023-01-29T08:24:18.446Z,9.13
2023-01-29T08:27:20.876Z,9.50
2023-01-29T08:30:23.419Z,11.23
2023-01-29T08:33:38.268Z,9.02
2023-01-29T08:36:42.124Z,8.85
2023-01-29T08:39:44.408Z,8.32
2023-01-29T08:43:51.995Z,7.73
2023-01-29T09:24:12.073Z,7.35
2023-01-29T09:28:06.714Z,7.60
2023-01-29T09:35:42.329Z,7.28
2023-01-29T09:39:24.240Z,7.13
2023-01-29T09:43:23.529Z,7.18
2023-01-29T10:04:56.897Z,6.35
2023-01-29T10:08:39.393Z,5.93
2023-01-29T10:12:05.623Z,6.05
2023-01-29T10:15:40.760Z,5.97
2023-01-29T10:19:16.215Z,5.80
2023-01-29T10:23:34.830Z,5.82
2023-01-29T10:26:49.710Z,6.28
2023-01-29T10:30:09.152Z,5.95
2023-01-29T10:34:01.579Z,5.15
2023-01-29T10:38:06.385Z,5.00
2023-01-29T10:42:07.787Z,5.65
2023-01-29T10:46:01.854Z,5.90
2023-01-29T10:49:29.033Z,5.53
2023-01-29T10:52:51.753Z,5.70
2023-01-29T10:55:56.414Z,5.83
2023-01-29T10:59:05.552Z,6.00
2023-01-29T11:02:18.164Z,5.75
2023-01-29T11:06:18.767Z,5.85
2023-01-29T11:09:55.725Z,6.28
2023-01-29T11:12:59.359Z,8.93
2023-01-29T11:16:01.143Z,7.47
2023-01-29T11:19:03.029Z,6.03
2023-01-29T11:22:05.112Z,5.70
2023-01-29T11:25:12.651Z,6.05
2023-01-29T11:28:14.437Z,6.23
2023-01-29T11:31:22.738Z,6.22
2023-01-29T11:34:27.893Z,10.05
2023-01-29T11:37:55.748Z,8.40
2023-01-29T11:41:16.606Z,6.07
2023-01-29T11:44:43.965Z,6.15
2023-01-29T11:47:52.381Z,6.32
2023-01-29T11:51:08.269Z,6.93
2023-01-29T12:07:42.925Z,9.27
2023-01-29T12:10:44.763Z,7.35
2023-01-29T12:13:54.292Z,7.03
2023-01-29T12:17:18.559Z,7.22
2023-01-29T12:20:26.763Z,6.38
2023-01-29T12:23:36.629Z,7.03
2023-01-29T12:26:45.666Z,6.28
2023-01-29T12:30:22.606Z,6.40
2023-01-29T12:33:37.028Z,6.43
2023-01-29T12:36:47.036Z,6.25
2023-01-29T12:39:49.715Z,6.30
2023-01-29T12:42:57.828Z,6.53
2023-01-29T12:46:02.107Z,6.10
2023-01-29T12:49:09.811Z,6.93
2023-01-29T12:52:34.887Z,6.30
2023-01-29T12:55:47.947Z,7.30
2023-01-29T12:58:53.350Z,6.80
2023-01-29T13:02:30.182Z,7.32
2023-01-29T13:05:41.340Z,7.85
2023-01-29T13:08:53.739Z,6.80
2023-01-29T13:12:11.464Z,7.55
2023-01-29T13:15:13.086Z,6.70
2023-01-29T13:18:44.578Z,7.37
2023-01-29T13:21:47.325Z,7.00
2023-01-29T13:24:58.744Z,6.65
2023-01-29T13:28:05.749Z,6.90
2023-01-29T13:31:29.044Z,7.00
2023-01-29T13:34:44.375Z,6.63
2023-01-29T13:37:53.253Z,7.38
2023-01-29T13:41:00.781Z,7.80
2023-01-29T13:44:05.275Z,8.45
2023-01-29T13:47:12.261Z,9.93
2023-01-29T13:50:38.733Z,9.20
2023-01-29T13:53:41.874Z,7.70
2023-01-29T13:56:49.847Z,7.68
2023-01-29T13:59:54.638Z,7.80
2023-01-29T14:03:05.358Z,9.63
2023-01-29T14:06:06.990Z,9.48
2023-01-29T14:09:53.346Z,8.00
2023-01-29T14:13:15.404Z,6.90
2023-01-29T14:16:16.942Z,9.60
2023-01-29T14:19:19.964Z,12.20
2023-01-29T14:22:27.715Z,8.77
2023-01-29T14:25:35.552Z,10.55
2023-01-29T14:28:37.195Z,9.30
2023-01-29T14:31:43.286Z,8.07
2023-01-29T14:34:49.574Z,9.48
2023-01-29T14:37:54.626Z,8.52
2023-01-29T14:41:07.580Z,8.23
2023-01-29T14:44:46.801Z,7.95
2023-01-29T14:47:48.323Z,7.63
2023-01-29T14:50:53.453Z,7.68
2023-01-29T14:54:13.144Z,7.27
2023-01-29T14:57:17.940Z,8.18
2023-01-29T15:00:30.262Z,8.02
2023-01-29T15:03:45.848Z,7.90
2023-01-29T15:06:53.057Z,8.05
2023-01-29T15:10:22.757Z,9.70
2023-01-29T15:13:35.808Z,8.13
2023-01-29T15:17:06.813Z,9.30
2023-01-29T15:20:28.635Z,8.95
2023-01-29T15:23:32.520Z,10.00
2023-01-29T15:26:35.894Z,7.97
2023-01-29T15:29:38.330Z,8.93
2023-01-29T15:32:40.334Z,12.15
2023-01-29T15:35:42.535Z,8.67
2023-01-29T15:38:44.121Z,8.77
2023-01-29T15:41:46.203Z,8.95
2023-01-29T15:44:48.085Z,9.02
2023-01-29T15:47:50.570Z,11.95
2023-01-29T15:50:54.638Z,13.43
2023-01-29T15:54:15.929Z,11.63
2023-01-29T15:57:24.601Z,9.97
2023-01-29T16:00:29.421Z,14.10
2023-01-29T16:03:33.363Z,8.75
2023-01-29T16:06:40.213Z,9.80
2023-01-29T16:09:43.102Z,8.52
2023-01-29T16:12:51.160Z,8.38
2023-01-29T16:16:01.539Z,10.45
2023-01-29T16:19:19.835Z,11.63
2023-01-29T16:22:21.411Z,8.32
2023-01-29T16:25:23.535Z,10.25
2023-01-29T16:28:25.191Z,10.97
2023-01-29T16:31:29.103Z,9.73
2023-01-29T16:35:00.227Z,8.65
2023-01-29T16:38:16.158Z,9.27
2023-01-29T16:41:26.603Z,9.23
2023-01-29T16:44:28.085Z,9.07
2023-01-29T16:47:32.436Z,9.20
2023-01-29T16:50:46.305Z,7.45
2023-01-29T16:54:18.466Z,8.23
2023-01-29T16:57:24.791Z,9.07
2023-01-29T17:00:29.643Z,8.93
2023-01-29T17:03:34.053Z,11.85
2023-01-29T17:06:36.221Z,9.95
2023-01-29T17:09:38.297Z,8.20
2023-01-29T17:12:39.868Z,8.45
2023-01-29T17:15:43.033Z,8.93
2023-01-29T17:18:44.590Z,8.18
2023-01-29T17:21:49.360Z,8.57
2023-01-29T17:24:51.580Z,9.20
2023-01-29T17:28:18.986Z,8.68
2023-01-29T17:31:21.007Z,8.17
2023-01-29T17:34:26.718Z,8.63
2023-01-29T17:37:29.493Z,8.90
2023-01-29T17:40:40.534Z,8.20
2023-01-29T17:43:44.251Z,9.52
2023-01-29T17:46:47.648Z,9.35
2023-01-29T17:49:57.807Z,7.90
2023-01-29T17:53:11.856Z,9.02
2023-01-29T17:56:46.529Z,9.45
2023-01-29T17:59:48.893Z,9.73
2023-01-29T18:08:03.478Z,9.23
2023-01-29T18:14:24.602Z,9.33
2023-01-29T18:17:34.766Z,9.25
2023-01-29T18:20:48.010Z,9.30
2023-01-29T18:23:50.263Z,8.90
2023-01-29T18:27:25.726Z,8.10
2023-01-29T18:30:28.497Z,8.98
2023-01-29T18:34:59.452Z,9.85
2023-01-29T18:38:59.994Z,9.80
2023-01-29T18:42:01.855Z,9.02
2023-01-29T18:45:04.033Z,9.80
2023-01-29T18:51:41.917Z,9.85
2023-01-29T18:54:52.127Z,9.60
2023-01-29T18:58:25.148Z,9.20
2023-01-29T19:01:39.259Z,9.73
2023-01-29T19:04:42.279Z,8.88
2023-01-29T19:07:44.325Z,9.85
2023-01-29T19:10:46.289Z,9.38
2023-01-29T19:13:49.942Z,10.30
2023-01-29T19:16:51.964Z,10.25
2023-01-29T19:19:58.935Z,11.77
2023-01-29T19:23:00.844Z,9.95
2023-01-29T19:26:02.833Z,9.95
2023-01-29T19:29:04.747Z,12.70
2023-01-29T19:32:06.810Z,10.35
2023-01-29T19:35:09.051Z,11.50
2023-01-29T19:38:12.377Z,9.90
2023-01-29T19:41:14.246Z,8.65
2023-01-29T19:44:16.143Z,8.80
2023-01-29T19:47:17.920Z,8.48
2023-01-29T19:50:20.694Z,8.83
2023-01-29T19:53:23.211Z,9.98
2023-01-29T19:56:26.352Z,9.00
2023-01-29T19:59:28.119Z,9.67
2023-01-29T20:02:33.941Z,8.80
2023-01-29T20:05:37.591Z,9.05
2023-01-29T20:08:39.453Z,8.95
2023-01-29T20:11:41.232Z,8.45
2023-01-29T20:14:48.879Z,9.07
2023-01-29T20:17:53.653Z,9.63
2023-01-29T20:21:06.190Z,9.20
2023-01-29T20:24:12.367Z,10.07
2023-01-29T20:27:23.396Z,10.50
2023-01-29T20:30:28.977Z,9.27
2023-01-29T20:33:31.218Z,10.30
2023-01-29T20:36:33.174Z,9.75
2023-01-29T20:39:34.976Z,11.18
2023-01-29T20:42:37.052Z,12.02
2023-01-29T20:45:42.282Z,12.73
2023-01-29T20:48:44.377Z,15.07
2023-01-29T20:51:46.380Z,12.00
2023-01-29T20:54:48.147Z,11.02
2023-01-29T20:58:05.547Z,12.77
2023-01-29T21:01:13.165Z,11.77
2023-01-29T21:04:16.800Z,11.80
2023-01-29T21:07:18.860Z,11.45
2023-01-29T21:10:20.717Z,9.52
2023-01-29T21:13:22.676Z,8.90
2023-01-29T21:16:26.355Z,9.40
2023-01-29T21:19:31.315Z,8.93
2023-01-29T21:22:33.583Z,8.93
2023-01-29T21:25:36.204Z,8.32
2023-01-29T21:28:38.049Z,7.80
2023-01-29T21:31:40.884Z,8.50
2023-01-29T21:34:42.722Z,8.73
2023-01-29T21:37:44.538Z,8.43
2023-01-29T21:40:50.358Z,7.97
2023-01-29T21:43:56.053Z,7.93
2023-01-29T21:46:59.670Z,8.63
2023-01-29T21:50:01.744Z,8.98
2023-01-29T21:53:06.830Z,8.47
2023-01-29T21:56:10.068Z,9.32
2023-01-29T21:59:12.344Z,9.40
2023-01-29T22:02:15.277Z,8.33
2023-01-29T22:05:19.772Z,8.52
2023-01-29T22:08:30.829Z,8.65
2023-01-29T22:11:38.178Z,8.77
2023-01-29T22:14:43.699Z,8.75
2023-01-29T22:17:48.195Z,8.88
2023-01-29T22:21:02.778Z,8.18
2023-01-29T22:24:05.337Z,9.27
2023-01-29T22:27:16.664Z,9.77
2023-01-29T22:30:31.031Z,9.15
2023-01-29T22:33:59.783Z,9.00
2023-01-29T22:37:03.206Z,8.88
2023-01-29T22:40:11.629Z,9.00
2023-01-29T22:43:13.977Z,8.50
2023-01-29T22:46:15.985Z,8.50
2023-01-29T22:49:20.149Z,8.55
2023-01-29T22:52:26.209Z,8.90
2023-01-29T22:55:31.249Z,7.70
2023-01-29T22:58:42.633Z,8.77
2023-01-29T23:01:48.384Z,8.60
2023-01-29T23:04:51.240Z,8.17
2023-01-29T23:07:55.595Z,8.32
2023-01-29T23:11:14.196Z,9.55
2023-01-29T23:14:22.293Z,8.52
2023-01-29T23:17:24.346Z,8.43
2023-01-29T23:20:26.936Z,7.82
2023-01-29T23:23:29.933Z,7.90
2023-01-29T23:26:52.901Z,8.70
2023-01-29T23:29:55.051Z,8.00
2023-01-29T23:32:56.936Z,7.72
2023-01-29T23:35:58.870Z,7.93
2023-01-29T23:39:01.585Z,8.25
2023-01-29T23:42:06.382Z,8.45
2023-01-29T23:45:08.788Z,8.60
2023-01-29T23:48:10.900Z,7.70
2023-01-29T23:51:12.707Z,7.43
2023-01-29T23:54:16.858Z,8.48
2023-01-29T23:57:23.626Z,8.93
